sensor_id;sensor_type;location;lat;lon;timestamp;pressure;altitude;pressure_sealevel;temperature;humidity
17311;BME280;8773;43.300;0.394;2022-09-30T00:01:38;98897.66;;;12.80;100.00
17311;BME280;8773;43.300;0.394;2022-09-30T00:04:08;98900.91;;;12.68;100.00
17311;BME280;8773;43.300;0.394;2022-09-30T00:06:39;98903.69;;;12.76;100.00
17311;BME280;8773;43.300;0.394;2022-09-30T00:09:08;98895.91;;;12.81;100.00
17311;BME280;8773;43.300;0.394;2022-09-30T00:11:39;98895.91;;;12.81;100.00
17311;BME280;8773;43.300;0.394;2022-09-30T00:14:12;98893.25;;;12.78;100.00
17311;BME280;8773;43.300;0.394;2022-09-30T00:16:42;98896.97;;;12.92;100.00
17311;BME280;8773;43.300;0.394;2022-09-30T00:19:11;98901.09;;;12.79;100.00
17311;BME280;8773;43.300;0.394;2022-09-30T00:21:39;98904.38;;;12.67;100.00
17311;BME280;8773;43.300;0.394;2022-09-30T00:24:07;98913.00;;;12.60;100.00
17311;BME280;8773;43.300;0.394;2022-09-30T00:26:35;98911.97;;;12.54;100.00
17311;BME280;8773;43.300;0.394;2022-09-30T00:29:04;98915.38;;;12.49;100.00
17311;BME280;8773;43.300;0.394;2022-09-30T00:31:34;98906.69;;;12.52;100.00
17311;BME280;8773;43.300;0.394;2022-09-30T00:34:02;98913.09;;;12.66;100.00
17311;BME280;8773;43.300;0.394;2022-09-30T00:36:37;98906.34;;;12.79;100.00
17311;BME280;8773;43.300;0.394;2022-09-30T00:39:07;98903.91;;;12.90;100.00
17311;BME280;8773;43.300;0.394;2022-09-30T00:41:36;98895.19;;;12.89;100.00
17311;BME280;8773;43.300;0.394;2022-09-30T00:47:24;98902.13;;;12.87;100.00
17311;BME280;8773;43.300;0.394;2022-09-30T00:49:54;98905.03;;;13.04;100.00
17311;BME280;8773;43.300;0.394;2022-09-30T00:52:24;98899.09;;;13.11;100.00
17311;BME280;8773;43.300;0.394;2022-09-30T00:54:55;98906.84;;;13.07;100.00
17311;BME280;8773;43.300;0.394;2022-09-30T00:57:26;98907.81;;;13.10;100.00
17311;BME280;8773;43.300;0.394;2022-09-30T00:59:55;98911.31;;;13.11;100.00
17311;BME280;8773;43.300;0.394;2022-09-30T01:02:24;98918.38;;;13.15;100.00
17311;BME280;8773;43.300;0.394;2022-09-30T01:04:52;98915.94;;;13.26;100.00
17311;BME280;8773;43.300;0.394;2022-09-30T01:07:22;98918.56;;;13.27;100.00
17311;BME280;8773;43.300;0.394;2022-09-30T01:09:51;98921.00;;;13.15;100.00
17311;BME280;8773;43.300;0.394;2022-09-30T01:12:21;98919.69;;;12.94;100.00
17311;BME280;8773;43.300;0.394;2022-09-30T01:14:52;98911.97;;;13.02;100.00
17311;BME280;8773;43.300;0.394;2022-09-30T01:17:31;98918.44;;;12.73;100.00
17311;BME280;8773;43.300;0.394;2022-09-30T01:26:18;98925.44;;;12.74;100.00
17311;BME280;8773;43.300;0.394;2022-09-30T01:32:14;98918.69;;;12.86;100.00
17311;BME280;8773;43.300;0.394;2022-09-30T01:34:51;98909.34;;;12.54;100.00
17311;BME280;8773;43.300;0.394;2022-09-30T01:37:23;98909.16;;;12.43;100.00
17311;BME280;8773;43.300;0.394;2022-09-30T01:39:59;98906.47;;;12.40;100.00
17311;BME280;8773;43.300;0.394;2022-09-30T01:42:36;98905.00;;;12.53;100.00
17311;BME280;8773;43.300;0.394;2022-09-30T01:45:11;98906.88;;;12.61;100.00
17311;BME280;8773;43.300;0.394;2022-09-30T01:47:46;98910.13;;;12.49;100.00
17311;BME280;8773;43.300;0.394;2022-09-30T01:50:19;98909.88;;;12.37;100.00
17311;BME280;8773;43.300;0.394;2022-09-30T01:52:55;98904.59;;;12.33;100.00
17311;BME280;8773;43.300;0.394;2022-09-30T01:55:29;98903.84;;;12.40;100.00
17311;BME280;8773;43.300;0.394;2022-09-30T01:58:04;98918.06;;;12.53;100.00
17311;BME280;8773;43.300;0.394;2022-09-30T02:00:37;98915.38;;;12.49;100.00
17311;BME280;8773;43.300;0.394;2022-09-30T02:03:11;98915.31;;;12.46;100.00
17311;BME280;8773;43.300;0.394;2022-09-30T02:05:47;98907.22;;;12.33;100.00
17311;BME280;8773;43.300;0.394;2022-09-30T02:08:20;98908.91;;;12.32;100.00
17311;BME280;8773;43.300;0.394;2022-09-30T02:10:54;98913.44;;;12.39;100.00
17311;BME280;8773;43.300;0.394;2022-09-30T02:13:28;98909.69;;;12.26;100.00
17311;BME280;8773;43.300;0.394;2022-09-30T02:16:00;98904.50;;;12.29;100.00
17311;BME280;8773;43.300;0.394;2022-09-30T02:18:41;98907.00;;;12.23;100.00
17311;BME280;8773;43.300;0.394;2022-09-30T02:21:14;98907.13;;;12.29;100.00
17311;BME280;8773;43.300;0.394;2022-09-30T02:23:44;98908.09;;;12.33;100.00
17311;BME280;8773;43.300;0.394;2022-09-30T02:26:18;98900.75;;;12.17;100.00
17311;BME280;8773;43.300;0.394;2022-09-30T02:28:51;98905.38;;;12.28;100.00
17311;BME280;8773;43.300;0.394;2022-09-30T02:31:21;98896.59;;;12.26;100.00
17311;BME280;8773;43.300;0.394;2022-09-30T02:33:55;98892.81;;;12.12;100.00
17311;BME280;8773;43.300;0.394;2022-09-30T02:36:28;98902.75;;;11.89;100.00
17311;BME280;8773;43.300;0.394;2022-09-30T02:39:04;98901.31;;;12.02;100.00
17311;BME280;8773;43.300;0.394;2022-09-30T02:41:41;98906.50;;;11.99;100.00
17311;BME280;8773;43.300;0.394;2022-09-30T02:44:11;98905.13;;;12.16;100.00
17311;BME280;8773;43.300;0.394;2022-09-30T02:46:45;98895.59;;;12.20;100.00
17311;BME280;8773;43.300;0.394;2022-09-30T02:49:21;98896.97;;;12.01;100.00
17311;BME280;8773;43.300;0.394;2022-09-30T02:52:03;98897.88;;;12.03;100.00
17311;BME280;8773;43.300;0.394;2022-09-30T02:54:36;98897.38;;;12.22;100.00
17311;BME280;8773;43.300;0.394;2022-09-30T02:57:14;98900.34;;;12.38;100.00
17311;BME280;8773;43.300;0.394;2022-09-30T02:59:45;98901.56;;;12.55;100.00
17311;BME280;8773;43.300;0.394;2022-09-30T03:02:14;98895.41;;;12.53;100.00
17311;BME280;8773;43.300;0.394;2022-09-30T03:04:45;98898.75;;;12.46;100.00
17311;BME280;8773;43.300;0.394;2022-09-30T03:07:13;98886.03;;;12.20;100.00
17311;BME280;8773;43.300;0.394;2022-09-30T03:09:41;98889.16;;;12.04;100.00
17311;BME280;8773;43.300;0.394;2022-09-30T03:12:15;98900.50;;;12.04;100.00
17311;BME280;8773;43.300;0.394;2022-09-30T03:15:02;98892.81;;;12.12;100.00
17311;BME280;8773;43.300;0.394;2022-09-30T03:17:50;98899.28;;;12.28;100.00
17311;BME280;8773;43.300;0.394;2022-09-30T03:20:33;98896.75;;;12.34;100.00
17311;BME280;8773;43.300;0.394;2022-09-30T03:23:24;98909.25;;;12.06;100.00
17311;BME280;8773;43.300;0.394;2022-09-30T03:26:13;98905.56;;;11.97;100.00
17311;BME280;8773;43.300;0.394;2022-09-30T03:28:51;98907.97;;;11.89;100.00
17311;BME280;8773;43.300;0.394;2022-09-30T03:31:39;98914.06;;;11.88;100.00
17311;BME280;8773;43.300;0.394;2022-09-30T03:34:21;98912.97;;;11.78;100.00
17311;BME280;8773;43.300;0.394;2022-09-30T03:36:59;98928.84;;;11.88;100.00
17311;BME280;8773;43.300;0.394;2022-09-30T03:39:39;98927.50;;;11.66;100.00
17311;BME280;8773;43.300;0.394;2022-09-30T03:42:15;98945.72;;;11.64;100.00
17311;BME280;8773;43.300;0.394;2022-09-30T03:44:56;98937.97;;;11.67;100.00
17311;BME280;8773;43.300;0.394;2022-09-30T03:47:29;98941.44;;;11.66;100.00
17311;BME280;8773;43.300;0.394;2022-09-30T03:50:02;98946.44;;;11.57;100.00
17311;BME280;8773;43.300;0.394;2022-09-30T03:52:32;98951.84;;;11.64;100.00
17311;BME280;8773;43.300;0.394;2022-09-30T03:55:03;98954.66;;;11.74;100.00
17311;BME280;8773;43.300;0.394;2022-09-30T03:57:33;98956.47;;;11.76;100.00
17311;BME280;8773;43.300;0.394;2022-09-30T04:00:03;98952.13;;;11.77;100.00
17311;BME280;8773;43.300;0.394;2022-09-30T04:02:31;98950.47;;;11.44;100.00
17311;BME280;8773;43.300;0.394;2022-09-30T04:05:04;98956.88;;;11.57;100.00
17311;BME280;8773;43.300;0.394;2022-09-30T04:07:34;98954.56;;;11.69;100.00
17311;BME280;8773;43.300;0.394;2022-09-30T04:10:02;98950.38;;;11.77;100.00
17311;BME280;8773;43.300;0.394;2022-09-30T04:12:30;98960.81;;;11.76;100.00
17311;BME280;8773;43.300;0.394;2022-09-30T04:14:58;98968.78;;;11.82;100.00
17311;BME280;8773;43.300;0.394;2022-09-30T04:17:26;98968.84;;;11.85;100.00
17311;BME280;8773;43.300;0.394;2022-09-30T04:19:54;98974.94;;;11.84;100.00
17311;BME280;8773;43.300;0.394;2022-09-30T04:22:22;98966.00;;;11.74;100.00
17311;BME280;8773;43.300;0.394;2022-09-30T04:24:53;98982.84;;;11.87;100.00
17311;BME280;8773;43.300;0.394;2022-09-30T04:27:21;98986.38;;;11.89;100.00
17311;BME280;8773;43.300;0.394;2022-09-30T04:29:49;99004.38;;;11.77;100.00
17311;BME280;8773;43.300;0.394;2022-09-30T04:32:17;98993.34;;;11.90;100.00
17311;BME280;8773;43.300;0.394;2022-09-30T04:34:45;98998.84;;;11.99;100.00
17311;BME280;8773;43.300;0.394;2022-09-30T04:37:13;99003.31;;;12.05;100.00
17311;BME280;8773;43.300;0.394;2022-09-30T04:39:41;99001.69;;;12.09;100.00
17311;BME280;8773;43.300;0.394;2022-09-30T04:42:11;99004.41;;;12.13;100.00
17311;BME280;8773;43.300;0.394;2022-09-30T04:44:39;99013.25;;;12.20;100.00
17311;BME280;8773;43.300;0.394;2022-09-30T04:47:07;99012.63;;;12.32;100.00
17311;BME280;8773;43.300;0.394;2022-09-30T04:49:35;99017.88;;;12.32;100.00
17311;BME280;8773;43.300;0.394;2022-09-30T04:52:03;99014.16;;;12.20;100.00
17311;BME280;8773;43.300;0.394;2022-09-30T04:54:31;99021.19;;;12.24;100.00
17311;BME280;8773;43.300;0.394;2022-09-30T04:56:59;99014.28;;;12.26;100.00
17311;BME280;8773;43.300;0.394;2022-09-30T04:59:28;99032.50;;;12.23;100.00
17311;BME280;8773;43.300;0.394;2022-09-30T05:01:56;99029.47;;;12.43;100.00
17311;BME280;8773;43.300;0.394;2022-09-30T05:04:24;99031.69;;;12.26;100.00
17311;BME280;8773;43.300;0.394;2022-09-30T05:06:53;99030.81;;;12.25;100.00
17311;BME280;8773;43.300;0.394;2022-09-30T05:09:21;99030.19;;;12.36;100.00
17311;BME280;8773;43.300;0.394;2022-09-30T05:11:49;99040.75;;;12.42;100.00
17311;BME280;8773;43.300;0.394;2022-09-30T05:14:17;99046.19;;;12.51;100.00
17311;BME280;8773;43.300;0.394;2022-09-30T05:16:47;99050.50;;;12.49;100.00
17311;BME280;8773;43.300;0.394;2022-09-30T05:19:14;99052.19;;;12.47;100.00
17311;BME280;8773;43.300;0.394;2022-09-30T05:21:42;99052.47;;;12.58;100.00
17311;BME280;8773;43.300;0.394;2022-09-30T05:24:12;99054.09;;;12.53;100.00
17311;BME280;8773;43.300;0.394;2022-09-30T05:26:40;99049.69;;;12.52;100.00
17311;BME280;8773;43.300;0.394;2022-09-30T05:29:08;99054.66;;;12.39;100.00
17311;BME280;8773;43.300;0.394;2022-09-30T05:31:36;99059.06;;;12.42;100.00
17311;BME280;8773;43.300;0.394;2022-09-30T05:34:06;99061.84;;;12.48;100.00
17311;BME280;8773;43.300;0.394;2022-09-30T05:36:34;99063.38;;;12.40;100.00
17311;BME280;8773;43.300;0.394;2022-09-30T05:39:02;99061.03;;;12.52;100.00
17311;BME280;8773;43.300;0.394;2022-09-30T05:41:30;99064.22;;;12.39;100.00
17311;BME280;8773;43.300;0.394;2022-09-30T05:43:58;99072.41;;;12.53;100.00
17311;BME280;8773;43.300;0.394;2022-09-30T05:46:26;99064.84;;;12.66;100.00
17311;BME280;8773;43.300;0.394;2022-09-30T05:48:55;99073.66;;;12.71;100.00
17311;BME280;8773;43.300;0.394;2022-09-30T05:51:24;99073.06;;;12.83;100.00
17311;BME280;8773;43.300;0.394;2022-09-30T05:53:52;99074.88;;;12.87;100.00
17311;BME280;8773;43.300;0.394;2022-09-30T05:56:20;99084.50;;;12.90;100.00
17311;BME280;8773;43.300;0.394;2022-09-30T05:58:48;99082.81;;;12.92;100.00
17311;BME280;8773;43.300;0.394;2022-09-30T06:01:16;99075.06;;;12.95;100.00
17311;BME280;8773;43.300;0.394;2022-09-30T06:03:45;99085.59;;;13.00;100.00
17311;BME280;8773;43.300;0.394;2022-09-30T06:06:14;99087.47;;;13.05;100.00
17311;BME280;8773;43.300;0.394;2022-09-30T06:08:44;99089.56;;;12.81;100.00
17311;BME280;8773;43.300;0.394;2022-09-30T06:11:15;99091.00;;;12.66;100.00
17311;BME280;8773;43.300;0.394;2022-09-30T06:13:44;99098.91;;;12.69;100.00
17311;BME280;8773;43.300;0.394;2022-09-30T06:16:13;99096.25;;;12.66;100.00
17311;BME280;8773;43.300;0.394;2022-09-30T06:18:41;99104.16;;;12.69;100.00
17311;BME280;8773;43.300;0.394;2022-09-30T06:21:11;99112.16;;;12.76;100.00
17311;BME280;8773;43.300;0.394;2022-09-30T06:23:40;99116.34;;;12.69;100.00
17311;BME280;8773;43.300;0.394;2022-09-30T06:26:11;99128.78;;;12.79;100.00
17311;BME280;8773;43.300;0.394;2022-09-30T06:28:40;99126.16;;;12.78;100.00
17311;BME280;8773;43.300;0.394;2022-09-30T06:31:08;99118.81;;;12.61;100.00
17311;BME280;8773;43.300;0.394;2022-09-30T06:33:37;99123.34;;;12.70;100.00
17311;BME280;8773;43.300;0.394;2022-09-30T06:36:05;99122.13;;;12.93;100.00
17311;BME280;8773;43.300;0.394;2022-09-30T06:38:34;99141.78;;;13.14;100.00
17311;BME280;8773;43.300;0.394;2022-09-30T06:41:03;99149.06;;;13.29;100.00
17311;BME280;8773;43.300;0.394;2022-09-30T06:43:32;99141.84;;;13.17;100.00
17311;BME280;8773;43.300;0.394;2022-09-30T06:46:17;99150.81;;;13.30;100.00
17311;BME280;8773;43.300;0.394;2022-09-30T06:48:56;99157.91;;;13.34;100.00
17311;BME280;8773;43.300;0.394;2022-09-30T06:51:39;99156.31;;;13.42;100.00
17311;BME280;8773;43.300;0.394;2022-09-30T06:54:08;99162.38;;;13.40;100.00
17311;BME280;8773;43.300;0.394;2022-09-30T06:56:36;99170.56;;;13.55;100.00
17311;BME280;8773;43.300;0.394;2022-09-30T06:59:06;99169.78;;;13.61;100.00
17311;BME280;8773;43.300;0.394;2022-09-30T07:01:34;99171.81;;;13.75;100.00
17311;BME280;8773;43.300;0.394;2022-09-30T07:04:02;99179.09;;;13.90;100.00
17311;BME280;8773;43.300;0.394;2022-09-30T07:06:35;99188.19;;;14.11;100.00
17311;BME280;8773;43.300;0.394;2022-09-30T07:09:05;99197.13;;;14.20;100.00
17311;BME280;8773;43.300;0.394;2022-09-30T07:11:33;99204.38;;;14.35;100.00
17311;BME280;8773;43.300;0.394;2022-09-30T07:14:02;99199.19;;;14.38;100.00
17311;BME280;8773;43.300;0.394;2022-09-30T07:16:32;99211.59;;;14.49;100.00
17311;BME280;8773;43.300;0.394;2022-09-30T07:19:01;99210.94;;;14.62;100.00
17311;BME280;8773;43.300;0.394;2022-09-30T07:21:29;99217.63;;;14.44;100.00
17311;BME280;8773;43.300;0.394;2022-09-30T07:23:58;99225.84;;;14.63;100.00
17311;BME280;8773;43.300;0.394;2022-09-30T07:26:26;99237.38;;;14.74;100.00
17311;BME280;8773;43.300;0.394;2022-09-30T07:28:54;99241.22;;;14.96;100.00
17311;BME280;8773;43.300;0.394;2022-09-30T07:31:25;99238.69;;;15.02;100.00
17311;BME280;8773;43.300;0.394;2022-09-30T07:34:02;99243.28;;;15.17;100.00
17311;BME280;8773;43.300;0.394;2022-09-30T07:36:33;99245.28;;;15.34;100.00
17311;BME280;8773;43.300;0.394;2022-09-30T07:39:04;99254.00;;;15.31;100.00
17311;BME280;8773;43.300;0.394;2022-09-30T07:41:33;99251.41;;;15.34;100.00
17311;BME280;8773;43.300;0.394;2022-09-30T07:44:02;99255.75;;;15.31;100.00
17311;BME280;8773;43.300;0.394;2022-09-30T07:46:33;99241.72;;;15.28;100.00
17311;BME280;8773;43.300;0.394;2022-09-30T07:49:07;99254.13;;;15.39;100.00
17311;BME280;8773;43.300;0.394;2022-09-30T07:51:40;99254.13;;;15.39;100.00
17311;BME280;8773;43.300;0.394;2022-09-30T07:54:12;99268.06;;;15.33;100.00
17311;BME280;8773;43.300;0.394;2022-09-30T07:56:41;99270.03;;;15.48;100.00
17311;BME280;8773;43.300;0.394;2022-09-30T07:59:31;99277.13;;;15.57;100.00
17311;BME280;8773;43.300;0.394;2022-09-30T08:01:59;99283.06;;;15.42;100.00
17311;BME280;8773;43.300;0.394;2022-09-30T08:04:29;99290.91;;;15.39;100.00
17311;BME280;8773;43.300;0.394;2022-09-30T08:06:58;99286.91;;;15.67;100.00
17311;BME280;8773;43.300;0.394;2022-09-30T08:09:27;99287.22;;;15.93;100.00
17311;BME280;8773;43.300;0.394;2022-09-30T08:11:56;99294.38;;;16.03;100.00
17311;BME280;8773;43.300;0.394;2022-09-30T08:14:26;99290.25;;;16.22;100.00
17311;BME280;8773;43.300;0.394;2022-09-30T08:16:54;99291.09;;;16.24;100.00
17311;BME280;8773;43.300;0.394;2022-09-30T08:19:25;99299.19;;;16.41;100.00
17311;BME280;8773;43.300;0.394;2022-09-30T08:21:55;99304.59;;;16.56;100.00
17311;BME280;8773;43.300;0.394;2022-09-30T08:24:24;99317.06;;;16.73;100.00
17311;BME280;8773;43.300;0.394;2022-09-30T08:26:53;99326.06;;;17.01;100.00
17311;BME280;8773;43.300;0.394;2022-09-30T08:29:22;99322.69;;;17.14;100.00
17311;BME280;8773;43.300;0.394;2022-09-30T08:32:10;99327.56;;;16.70;100.00
17311;BME280;8773;43.300;0.394;2022-09-30T08:34:38;99335.38;;;16.64;100.00
17311;BME280;8773;43.300;0.394;2022-09-30T08:37:07;99335.63;;;16.91;100.00
17311;BME280;8773;43.300;0.394;2022-09-30T08:39:36;99340.88;;;16.85;100.00
17311;BME280;8773;43.300;0.394;2022-09-30T08:42:17;99340.06;;;16.95;100.00
17311;BME280;8773;43.300;0.394;2022-09-30T08:45:09;99343.63;;;16.97;100.00
17311;BME280;8773;43.300;0.394;2022-09-30T08:47:45;99345.56;;;17.17;100.00
17311;BME280;8773;43.300;0.394;2022-09-30T08:50:19;99356.03;;;17.09;100.00
17311;BME280;8773;43.300;0.394;2022-09-30T08:52:53;99366.47;;;17.00;100.00
17311;BME280;8773;43.300;0.394;2022-09-30T08:55:25;99371.13;;;17.27;100.00
17311;BME280;8773;43.300;0.394;2022-09-30T08:57:56;99368.72;;;17.64;100.00
17311;BME280;8773;43.300;0.394;2022-09-30T09:00:24;99378.59;;;17.96;100.00
17311;BME280;8773;43.300;0.394;2022-09-30T09:02:55;99384.53;;;17.59;100.00
17311;BME280;8773;43.300;0.394;2022-09-30T09:05:34;99387.19;;;17.62;100.00
17311;BME280;8773;43.300;0.394;2022-09-30T09:08:16;99394.16;;;17.53;100.00
17311;BME280;8773;43.300;0.394;2022-09-30T09:10:51;99385.06;;;17.14;100.00
17311;BME280;8773;43.300;0.394;2022-09-30T09:13:35;99394.13;;;16.55;100.00
17311;BME280;8773;43.300;0.394;2022-09-30T09:16:09;99396.81;;;16.60;100.00
17311;BME280;8773;43.300;0.394;2022-09-30T09:18:46;99403.81;;;16.59;100.00
17311;BME280;8773;43.300;0.394;2022-09-30T09:21:21;99409.84;;;16.52;100.00
17311;BME280;8773;43.300;0.394;2022-09-30T09:23:52;99414.28;;;16.54;100.00
17311;BME280;8773;43.300;0.394;2022-09-30T09:26:25;99412.75;;;16.76;100.00
17311;BME280;8773;43.300;0.394;2022-09-30T09:29:08;99417.00;;;16.61;100.00
17311;BME280;8773;43.300;0.394;2022-09-30T09:31:46;99426.75;;;16.71;100.00
17311;BME280;8773;43.300;0.394;2022-09-30T09:34:14;99426.00;;;16.81;100.00
17311;BME280;8773;43.300;0.394;2022-09-30T09:36:53;99427.94;;;16.97;100.00
17311;BME280;8773;43.300;0.394;2022-09-30T09:39:39;99423.38;;;16.84;100.00
17311;BME280;8773;43.300;0.394;2022-09-30T09:42:27;99441.38;;;16.44;100.00
17311;BME280;8773;43.300;0.394;2022-09-30T09:45:00;99431.41;;;16.19;100.00
17311;BME280;8773;43.300;0.394;2022-09-30T09:47:29;99440.91;;;16.12;100.00
17311;BME280;8773;43.300;0.394;2022-09-30T09:49:59;99441.81;;;16.14;100.00
17311;BME280;8773;43.300;0.394;2022-09-30T09:52:58;99438.59;;;16.33;100.00
17311;BME280;8773;43.300;0.394;2022-09-30T09:55:31;99453.78;;;16.53;100.00
17311;BME280;8773;43.300;0.394;2022-09-30T09:58:05;99447.56;;;16.48;100.00
17311;BME280;8773;43.300;0.394;2022-09-30T10:00:33;99448.72;;;16.70;100.00
17311;BME280;8773;43.300;0.394;2022-09-30T10:03:25;99454.13;;;16.87;100.00
17311;BME280;8773;43.300;0.394;2022-09-30T10:06:03;99455.84;;;16.82;100.00
17311;BME280;8773;43.300;0.394;2022-09-30T10:08:32;99459.47;;;16.91;100.00
17311;BME280;8773;43.300;0.394;2022-09-30T10:11:04;99445.41;;;16.91;100.00
17311;BME280;8773;43.300;0.394;2022-09-30T10:13:41;99447.44;;;17.16;100.00
17311;BME280;8773;43.300;0.394;2022-09-30T10:16:25;99439.53;;;17.16;100.00
17311;BME280;8773;43.300;0.394;2022-09-30T10:18:54;99449.13;;;17.08;100.00
17311;BME280;8773;43.300;0.394;2022-09-30T10:21:24;99443.13;;;17.23;100.00
17311;BME280;8773;43.300;0.394;2022-09-30T10:23:53;99444.94;;;17.30;100.00
17311;BME280;8773;43.300;0.394;2022-09-30T10:26:26;99450.38;;;17.49;100.00
17311;BME280;8773;43.300;0.394;2022-09-30T10:28:56;99457.94;;;17.12;100.00
17311;BME280;8773;43.300;0.394;2022-09-30T10:31:26;99459.88;;;17.28;100.00
17311;BME280;8773;43.300;0.394;2022-09-30T10:33:59;99450.44;;;17.55;100.00
17311;BME280;8773;43.300;0.394;2022-09-30T10:36:31;99458.69;;;18.01;100.00
17311;BME280;8773;43.300;0.394;2022-09-30T10:39:04;99471.94;;;18.13;100.00
17311;BME280;8773;43.300;0.394;2022-09-30T10:41:36;99470.19;;;18.12;100.00
17311;BME280;8773;43.300;0.394;2022-09-30T10:44:11;99475.38;;;17.97;100.00
17311;BME280;8773;43.300;0.394;2022-09-30T10:46:41;99486.09;;;18.26;100.00
17311;BME280;8773;43.300;0.394;2022-09-30T10:49:17;99474.41;;;17.92;100.00
17311;BME280;8773;43.300;0.394;2022-09-30T10:51:47;99473.41;;;17.74;100.00
17311;BME280;8773;43.300;0.394;2022-09-30T10:57:23;99482.56;;;17.14;100.00
17311;BME280;8773;43.300;0.394;2022-09-30T10:59:56;99491.09;;;16.94;100.00
17311;BME280;8773;43.300;0.394;2022-09-30T11:02:29;99502.34;;;16.78;100.00
17311;BME280;8773;43.300;0.394;2022-09-30T11:05:09;99498.81;;;16.76;100.00
17311;BME280;8773;43.300;0.394;2022-09-30T11:07:45;99495.22;;;16.71;100.00
17311;BME280;8773;43.300;0.394;2022-09-30T11:10:27;99500.78;;;16.95;100.00
17311;BME280;8773;43.300;0.394;2022-09-30T11:13:06;99504.69;;;17.28;100.00
17311;BME280;8773;43.300;0.394;2022-09-30T11:15:41;99504.88;;;17.50;100.00
17311;BME280;8773;43.300;0.394;2022-09-30T11:18:17;99513.03;;;17.80;100.00
17311;BME280;8773;43.300;0.394;2022-09-30T11:20:52;99511.06;;;17.53;100.00
17311;BME280;8773;43.300;0.394;2022-09-30T11:23:27;99508.34;;;17.44;100.00
17311;BME280;8773;43.300;0.394;2022-09-30T11:26:02;99512.81;;;17.50;100.00
17311;BME280;8773;43.300;0.394;2022-09-30T11:28:51;99512.88;;;17.60;100.00
17311;BME280;8773;43.300;0.394;2022-09-30T11:31:29;99509.13;;;17.34;100.00
17311;BME280;8773;43.300;0.394;2022-09-30T11:34:13;99512.84;;;17.59;100.00
17311;BME280;8773;43.300;0.394;2022-09-30T11:36:50;99510.06;;;17.40;100.00
17311;BME280;8773;43.300;0.394;2022-09-30T11:39:47;99512.22;;;17.87;100.00
17311;BME280;8773;43.300;0.394;2022-09-30T11:42:21;99512.19;;;17.86;100.00
17311;BME280;8773;43.300;0.394;2022-09-30T11:45:00;99515.22;;;18.38;100.00
17311;BME280;8773;43.300;0.394;2022-09-30T11:47:45;99510.75;;;18.26;100.00
17311;BME280;8773;43.300;0.394;2022-09-30T11:50:51;99513.88;;;17.75;100.00
17311;BME280;8773;43.300;0.394;2022-09-30T11:53:32;99512.06;;;17.68;100.00
17311;BME280;8773;43.300;0.394;2022-09-30T11:56:14;99524.47;;;17.79;100.00
17311;BME280;8773;43.300;0.394;2022-09-30T11:58:48;99526.44;;;18.02;100.00
17311;BME280;8773;43.300;0.394;2022-09-30T12:01:21;99526.50;;;18.14;100.00
17311;BME280;8773;43.300;0.394;2022-09-30T12:03:57;99522.91;;;18.00;100.00
17311;BME280;8773;43.300;0.394;2022-09-30T12:06:32;99530.94;;;18.18;100.00
17311;BME280;8773;43.300;0.394;2022-09-30T12:09:07;99530.88;;;18.07;100.00
17311;BME280;8773;43.300;0.394;2022-09-30T12:11:45;99525.66;;;18.15;100.00
17311;BME280;8773;43.300;0.394;2022-09-30T12:14:21;99518.69;;;18.28;100.00
17311;BME280;8773;43.300;0.394;2022-09-30T12:16:52;99520.25;;;18.01;100.00
17311;BME280;8773;43.300;0.394;2022-09-30T12:19:27;99516.75;;;17.99;100.00
17311;BME280;8773;43.300;0.394;2022-09-30T12:22:03;99512.25;;;17.92;100.00
17311;BME280;8773;43.300;0.394;2022-09-30T12:24:35;99517.72;;;18.12;100.00
17311;BME280;8773;43.300;0.394;2022-09-30T12:27:03;99509.91;;;18.30;100.00
17311;BME280;8773;43.300;0.394;2022-09-30T12:29:36;99507.25;;;18.27;100.00
17311;BME280;8773;43.300;0.394;2022-09-30T12:32:41;99507.47;;;18.72;100.00
17311;BME280;8773;43.300;0.394;2022-09-30T12:35:36;99498.81;;;19.14;100.00
17311;BME280;8773;43.300;0.394;2022-09-30T12:38:22;99501.44;;;19.13;100.00
17311;BME280;8773;43.300;0.394;2022-09-30T12:41:02;99503.25;;;19.54;100.00
17311;BME280;8773;43.300;0.394;2022-09-30T12:46:47;99504.13;;;19.30;100.00
17311;BME280;8773;43.300;0.394;2022-09-30T12:49:22;99512.91;;;19.04;100.00
17311;BME280;8773;43.300;0.394;2022-09-30T12:51:54;99509.28;;;18.84;100.00
17311;BME280;8773;43.300;0.394;2022-09-30T12:54:26;99512.72;;;18.69;100.00
17311;BME280;8773;43.300;0.394;2022-09-30T12:56:57;99511.00;;;18.77;100.00
17311;BME280;8773;43.300;0.394;2022-09-30T12:59:29;99510.22;;;18.95;100.00
17311;BME280;8773;43.300;0.394;2022-09-30T13:01:59;99513.66;;;18.77;100.00
17311;BME280;8773;43.300;0.394;2022-09-30T13:04:36;99512.66;;;18.55;100.00
17311;BME280;8773;43.300;0.394;2022-09-30T13:07:10;99508.28;;;18.66;100.00
17311;BME280;8773;43.300;0.394;2022-09-30T13:09:58;99507.41;;;18.63;100.00
17311;BME280;8773;43.300;0.394;2022-09-30T13:12:39;99505.53;;;18.36;100.00
17311;BME280;8773;43.300;0.394;2022-09-30T13:15:39;99508.13;;;18.28;100.00
17311;BME280;8773;43.300;0.394;2022-09-30T13:21:19;99500.94;;;18.02;100.00
17311;BME280;8773;43.300;0.394;2022-09-30T13:23:49;99500.09;;;18.11;100.00
17311;BME280;8773;43.300;0.394;2022-09-30T13:26:38;99495.00;;;18.40;100.00
17311;BME280;8773;43.300;0.394;2022-09-30T13:29:36;99506.53;;;18.59;100.00
17311;BME280;8773;43.300;0.394;2022-09-30T13:32:08;99507.44;;;18.70;100.00
17311;BME280;8773;43.300;0.394;2022-09-30T13:34:54;99507.44;;;18.69;100.00
17311;BME280;8773;43.300;0.394;2022-09-30T13:38:13;99506.53;;;18.62;100.00
17311;BME280;8773;43.300;0.394;2022-09-30T13:40:45;99513.69;;;18.86;100.00
17311;BME280;8773;43.300;0.394;2022-09-30T13:43:33;99508.41;;;18.86;100.00
17311;BME280;8773;43.300;0.394;2022-09-30T13:46:06;99504.94;;;18.92;100.00
17311;BME280;8773;43.300;0.394;2022-09-30T13:48:41;99500.56;;;19.14;97.47
17311;BME280;8773;43.300;0.394;2022-09-30T13:51:13;99507.66;;;19.40;92.95
17311;BME280;8773;43.300;0.394;2022-09-30T13:53:47;99499.78;;;19.70;95.98
17311;BME280;8773;43.300;0.394;2022-09-30T13:56:19;99498.00;;;19.97;95.01